Time;durP1;ratioP1;P1;durP2;ratioP2;P2;SDS_P1;SDS_P2;PMS_P1;PMS_P2;Temp;Humidity;BMP_temperature;BMP_pressure;BME280_temperature;BME280_humidity;BME280_pressure;Samples;Min_cycle;Max_cycle;Signal;HPM_P1;HPM_P2
2022/04/04 00:00:03;;;;;;;3.80;2.80;;;4.60;1.00;;;;;;5031197;28;20938;-62
2022/04/04 00:02:29;;;;;;;4.70;2.40;;;4.60;1.00;;;;;;5032960;28;20442;-62
2022/04/04 00:04:54;;;;;;;3.37;3.07;;;4.60;1.00;;;;;;5032993;28;20454;-62
2022/04/04 00:07:20;;;;;;;5.50;3.00;;;4.60;1.00;;;;;;5033024;28;20653;-62
2022/04/04 00:09:46;;;;;;;7.23;2.47;;;4.60;1.00;;;;;;5032335;28;20660;-65
2022/04/04 00:12:12;;;;;;;3.10;2.20;;;4.50;1.00;;;;;;5032904;28;20218;-66
2022/04/04 00:14:38;;;;;;;2.33;2.17;;;4.60;1.00;;;;;;5032787;28;20850;-62
2022/04/04 00:17:04;;;;;;;4.20;2.87;;;4.60;1.00;;;;;;5032952;28;20229;-65
2022/04/04 00:19:29;;;;;;;4.30;2.30;;;4.60;1.00;;;;;;5032242;28;20541;-62
2022/04/04 00:21:56;;;;;;;10.33;2.70;;;4.60;1.00;;;;;;5031729;28;20450;-62
2022/04/04 00:24:22;;;;;;;2.90;2.47;;;4.60;1.00;;;;;;5032825;28;20245;-65
2022/04/04 00:26:48;;;;;;;6.40;2.63;;;4.60;1.00;;;;;;5032694;28;20450;-65
2022/04/04 00:29:14;;;;;;;2.50;2.20;;;4.60;1.00;;;;;;5035765;28;20409;-66
2022/04/04 00:31:39;;;;;;;7.23;2.60;;;4.60;1.00;;;;;;5036282;28;20627;-66
2022/04/04 00:34:05;;;;;;;6.00;2.63;;;4.60;1.00;;;;;;5035322;28;20180;-62
2022/04/04 00:36:30;;;;;;;4.93;2.57;;;4.60;1.00;;;;;;5036189;28;20177;-63
2022/04/04 00:38:56;;;;;;;10.30;2.67;;;4.60;1.00;;;;;;5035521;28;20655;-62
2022/04/04 00:41:21;;;;;;;2.77;2.57;;;4.60;1.00;;;;;;5036135;28;20196;-62
2022/04/04 00:43:51;;;;;;;2.83;2.43;;;4.50;1.00;;;;;;5036164;28;20180;-62
2022/04/04 00:46:17;;;;;;;6.67;2.90;;;4.50;1.00;;;;;;5036113;28;20598;-65
2022/04/04 00:48:43;;;;;;;2.27;2.07;;;4.60;1.00;;;;;;5035507;28;20487;-65
2022/04/04 00:51:08;;;;;;;13.63;2.50;;;4.60;1.00;;;;;;5036021;28;20405;-62
2022/04/04 00:53:35;;;;;;;2.00;1.90;;;4.60;1.00;;;;;;5036324;28;20176;-62
2022/04/04 00:56:01;;;;;;;4.63;2.27;;;4.60;1.00;;;;;;5036041;28;20294;-61
2022/04/04 00:58:30;;;;;;;3.63;2.30;;;4.60;1.00;;;;;;5035936;28;20413;-62
2022/04/04 01:00:56;;;;;;;3.00;2.80;;;4.60;1.00;;;;;;5035712;28;20493;-65
2022/04/04 01:03:22;;;;;;;8.13;2.00;;;4.60;1.00;;;;;;5035772;28;20427;-66
2022/04/04 01:05:48;;;;;;;2.33;2.20;;;4.60;1.00;;;;;;5035744;28;20450;-62
2022/04/04 01:08:15;;;;;;;3.17;2.97;;;4.70;1.00;;;;;;5035756;28;20170;-65
2022/04/04 01:10:42;;;;;;;6.07;2.10;;;4.70;1.00;;;;;;5034939;28;20184;-66
2022/04/04 01:13:10;;;;;;;2.67;2.47;;;4.70;1.00;;;;;;5035529;28;20454;-62
2022/04/04 01:15:36;;;;;;;2.87;1.97;;;4.70;1.00;;;;;;5035708;28;20407;-66
2022/04/04 01:18:09;;;;;;;5.40;3.03;;;4.70;1.00;;;;;;5035600;28;20434;-63
2022/04/04 01:20:36;;;;;;;5.67;2.83;;;4.70;1.00;;;;;;5034869;28;20501;-65
2022/04/04 01:23:02;;;;;;;12.23;2.93;;;4.60;1.00;;;;;;5035290;28;20426;-62
2022/04/04 01:25:30;;;;;;;3.73;3.43;;;4.60;1.00;;;;;;5035515;28;20457;-65
2022/04/04 01:27:56;;;;;;;3.93;3.63;;;4.60;1.00;;;;;;5034364;28;20407;-66
2022/04/04 01:30:23;;;;;;;3.80;3.37;;;4.60;1.00;;;;;;5034656;28;20506;-62
2022/04/04 01:32:49;;;;;;;6.07;3.50;;;4.50;1.00;;;;;;5035080;28;20423;-62
2022/04/04 01:35:17;;;;;;;6.03;3.70;;;4.50;1.00;;;;;;5035144;28;20470;-62
2022/04/04 01:37:42;;;;;;;3.60;3.30;;;4.60;1.00;;;;;;5035244;28;20408;-65
2022/04/04 01:40:10;;;;;;;3.40;3.10;;;4.60;1.00;;;;;;5033736;28;20460;-62
2022/04/04 01:42:37;;;;;;;7.97;3.73;;;4.60;1.00;;;;;;5034985;28;20188;-62
2022/04/04 01:45:04;;;;;;;5.03;4.17;;;4.60;1.00;;;;;;5034910;28;20452;-66
2022/04/04 01:47:29;;;;;;;4.10;3.80;;;4.60;1.00;;;;;;5034798;28;20417;-66
2022/04/04 01:49:55;;;;;;;4.37;3.93;;;4.60;1.00;;;;;;5033327;28;20846;-62
2022/04/04 01:52:21;;;;;;;3.10;2.90;;;4.60;1.00;;;;;;5034983;28;20242;-62
2022/04/04 01:54:46;;;;;;;3.60;2.83;;;4.60;1.00;;;;;;5034882;28;20218;-62
2022/04/04 01:57:12;;;;;;;4.17;3.40;;;4.60;1.00;;;;;;5033575;28;20206;-65
2022/04/04 01:59:38;;;;;;;5.67;3.73;;;4.60;1.00;;;;;;5034139;28;20240;-62
2022/04/04 02:02:04;;;;;;;3.50;3.20;;;4.50;1.00;;;;;;5034727;28;20192;-62
2022/04/04 02:04:29;;;;;;;3.63;3.33;;;4.40;1.00;;;;;;5034799;28;20633;-65
2022/04/04 02:06:55;;;;;;;8.60;4.40;;;4.40;1.00;;;;;;5034655;28;20453;-62
2022/04/04 02:09:20;;;;;;;5.03;3.80;;;4.40;1.00;;;;;;5033752;28;20190;-66
2022/04/04 02:11:47;;;;;;;12.67;4.97;;;4.30;1.00;;;;;;5034427;28;20223;-65
2022/04/04 02:14:13;;;;;;;10.03;5.27;;;4.20;1.00;;;;;;5034546;28;20159;-65
2022/04/04 02:16:39;;;;;;;7.20;4.67;;;4.30;1.00;;;;;;5034457;28;20457;-64
2022/04/04 02:19:05;;;;;;;5.83;4.63;;;4.20;1.00;;;;;;5033773;28;20868;-65
2022/04/04 02:21:30;;;;;;;8.23;4.10;;;4.30;1.00;;;;;;5034184;28;20199;-66
2022/04/04 02:23:56;;;;;;;4.60;4.20;;;4.20;1.00;;;;;;5034285;28;20262;-62
2022/04/04 02:26:22;;;;;;;4.07;3.73;;;4.30;1.00;;;;;;5034192;28;20200;-62
2022/04/04 02:28:47;;;;;;;8.60;4.50;;;4.20;1.00;;;;;;5033599;28;20168;-62
2022/04/04 02:31:13;;;;;;;8.30;4.80;;;4.20;1.00;;;;;;5034044;28;20561;-62
2022/04/04 02:33:38;;;;;;;3.73;3.53;;;4.30;1.00;;;;;;5034005;28;20229;-66
2022/04/04 02:36:04;;;;;;;5.10;4.03;;;4.30;1.00;;;;;;5034234;28;20175;-66
2022/04/04 02:38:33;;;;;;;4.00;3.70;;;4.20;1.00;;;;;;5033496;28;20638;-63
2022/04/04 02:40:59;;;;;;;4.73;4.20;;;4.30;1.00;;;;;;5033965;28;20828;-62
2022/04/04 02:43:25;;;;;;;3.50;2.77;;;4.20;1.00;;;;;;5033823;28;20529;-66
2022/04/04 02:45:50;;;;;;;4.37;4.03;;;4.20;1.00;;;;;;5033710;28;20567;-62
2022/04/04 02:48:16;;;;;;;4.33;3.43;;;4.20;1.00;;;;;;5034121;28;20410;-65
2022/04/04 02:50:46;;;;;;;6.47;3.60;;;4.20;1.00;;;;;;5032656;28;20168;-65
2022/04/04 02:53:13;;;;;;;3.93;3.50;;;4.10;1.00;;;;;;5033633;28;20184;-65
2022/04/04 02:58:40;;;;;;;3.80;3.50;;;4.00;1.00;;;;;;5050988;28;20419;-66
2022/04/04 03:01:05;;;;;;;3.20;3.00;;;4.10;1.00;;;;;;5037547;28;20414;-62
2022/04/04 03:03:31;;;;;;;4.23;3.93;;;4.00;1.00;;;;;;5033729;28;20552;-66
2022/04/04 03:05:57;;;;;;;4.13;3.63;;;4.00;1.00;;;;;;5033524;28;20187;-62
2022/04/04 03:08:22;;;;;;;5.73;4.80;;;4.00;1.00;;;;;;5032562;28;20171;-66
2022/04/04 03:10:48;;;;;;;10.60;4.07;;;4.00;1.00;;;;;;5031960;28;20179;-62
2022/04/04 03:13:13;;;;;;;3.10;2.90;;;4.00;1.00;;;;;;5033467;28;20194;-65
2022/04/04 03:15:39;;;;;;;5.83;4.50;;;4.10;1.00;;;;;;5033542;28;20211;-66
2022/04/04 03:18:07;;;;;;;3.70;3.47;;;4.00;1.00;;;;;;5033438;28;20262;-65
2022/04/04 03:20:33;;;;;;;3.80;3.60;;;4.00;1.00;;;;;;5031589;28;20182;-65
2022/04/04 03:23:00;;;;;;;5.00;4.60;;;4.10;1.00;;;;;;5033350;28;20430;-62
2022/04/04 03:25:26;;;;;;;8.53;4.90;;;4.00;1.00;;;;;;5033311;28;20458;-62
2022/04/04 03:27:53;;;;;;;4.40;4.10;;;4.00;1.00;;;;;;5033360;28;20390;-66
2022/04/04 03:30:22;;;;;;;4.53;4.07;;;4.00;1.00;;;;;;5032644;28;20402;-62
2022/04/04 03:32:49;;;;;;;6.70;4.30;;;3.90;1.00;;;;;;5031958;28;20434;-65
2022/04/04 03:35:16;;;;;;;5.00;3.87;;;4.00;1.00;;;;;;5033372;28;20476;-65
2022/04/04 03:37:44;;;;;;;4.33;3.90;;;4.00;1.00;;;;;;5033296;28;20423;-62
2022/04/04 03:40:13;;;;;;;6.33;3.63;;;4.00;1.00;;;;;;5032481;28;20480;-62
2022/04/04 03:42:40;;;;;;;3.83;3.47;;;3.90;1.00;;;;;;5033319;28;20430;-61
2022/04/04 03:45:07;;;;;;;4.70;4.30;;;3.90;1.00;;;;;;5033242;28;20457;-62
2022/04/04 03:47:33;;;;;;;6.07;3.70;;;3.90;1.00;;;;;;5033125;28;20520;-61
2022/04/04 03:49:59;;;;;;;4.03;3.67;;;3.90;1.00;;;;;;5032438;28;20468;-62
2022/04/04 03:52:25;;;;;;;5.27;4.50;;;3.90;1.00;;;;;;5032905;28;20906;-62
2022/04/04 03:54:51;;;;;;;4.20;3.97;;;3.90;1.00;;;;;;5033113;28;20422;-66
2022/04/04 03:57:18;;;;;;;3.90;3.60;;;3.90;1.00;;;;;;5032143;28;20945;-65
2022/04/04 03:59:44;;;;;;;3.23;2.93;;;3.80;1.00;;;;;;5032522;28;20171;-65
2022/04/04 04:02:11;;;;;;;4.83;4.30;;;3.80;1.00;;;;;;5033296;28;20442;-65
2022/04/04 04:04:37;;;;;;;2.80;2.70;;;3.80;1.00;;;;;;5036980;28;20880;-66
2022/04/04 04:07:03;;;;;;;4.47;3.43;;;3.80;1.00;;;;;;5036884;28;20545;-62
2022/04/04 04:09:28;;;;;;;4.07;3.67;;;3.80;1.00;;;;;;5036189;28;20476;-62
2022/04/04 04:11:55;;;;;;;4.83;4.43;;;3.80;1.00;;;;;;5036767;28;20484;-65
2022/04/04 04:14:21;;;;;;;4.37;3.97;;;3.80;1.00;;;;;;5036761;28;20168;-65
2022/04/04 04:16:47;;;;;;;5.77;2.97;;;3.80;1.00;;;;;;5036756;28;20414;-62
2022/04/04 04:20:19;;;;;;;3.00;2.70;;;3.80;1.00;;;;;;5036076;28;20464;-66
2022/04/04 04:21:58;;;;;;;4.73;4.40;;;3.80;1.00;;;;;;5036371;28;20234;-62
2022/04/04 04:24:24;;;;;;;4.10;3.90;;;3.90;1.00;;;;;;5035520;28;20421;-65
2022/04/04 04:26:50;;;;;;;6.00;4.00;;;3.90;1.00;;;;;;5035189;28;20284;-62
2022/04/04 04:29:16;;;;;;;5.57;4.90;;;3.90;1.00;;;;;;5035938;28;20159;-62
2022/04/04 04:31:42;;;;;;;4.80;3.17;;;3.90;1.00;;;;;;5036440;28;20492;-62
2022/04/04 04:34:08;;;;;;;3.57;3.27;;;3.90;1.00;;;;;;5036341;28;20448;-62
2022/04/04 04:36:33;;;;;;;3.87;3.57;;;3.90;1.00;;;;;;5036221;28;20402;-62
2022/04/04 04:38:59;;;;;;;3.03;2.80;;;4.00;1.00;;;;;;5035602;28;20183;-62
2022/04/04 04:41:25;;;;;;;3.70;3.40;;;4.00;1.00;;;;;;5036282;28;20640;-62
2022/04/04 04:43:51;;;;;;;6.40;4.10;;;4.00;1.00;;;;;;5036256;28;20168;-65
2022/04/04 04:46:16;;;;;;;3.57;3.27;;;4.00;1.00;;;;;;5036048;28;20476;-65
2022/04/04 04:48:42;;;;;;;6.13;3.70;;;4.00;99.90;;;;;;5033982;28;20175;-62
2022/04/04 04:51:08;;;;;;;4.20;3.90;;;4.00;99.90;;;;;;5034645;28;20179;-62
2022/04/04 04:53:34;;;;;;;5.40;3.60;;;4.00;99.90;;;;;;5034992;28;20254;-66
2022/04/04 04:56:00;;;;;;;4.27;3.97;;;4.00;99.90;;;;;;5036019;28;20528;-65
2022/04/04 04:58:26;;;;;;;6.20;3.30;;;4.00;99.90;;;;;;5035933;28;20424;-64
2022/04/04 05:00:51;;;;;;;3.75;3.15;;;4.10;99.90;;;;;;5034465;28;20408;-64
2022/04/04 05:03:26;;;;;;;4.43;4.13;;;4.10;99.90;;;;;;5035850;28;20199;-65
2022/04/04 05:05:53;;;;;;;3.77;3.37;;;4.10;99.90;;;;;;5035831;28;20660;-62
2022/04/04 05:08:19;;;;;;;5.80;3.43;;;4.10;99.90;;;;;;5035916;28;20405;-65
2022/04/04 05:10:45;;;;;;;4.97;4.47;;;4.10;99.90;;;;;;5034979;28;20438;-63
2022/04/04 05:13:11;;;;;;;6.20;4.87;;;4.10;99.90;;;;;;5035628;28;20426;-62
2022/04/04 05:15:37;;;;;;;4.73;4.33;;;4.10;99.90;;;;;;5034698;28;20402;-65
2022/04/04 05:18:03;;;;;;;6.00;5.40;;;4.10;99.90;;;;;;5035664;28;20903;-62
2022/04/04 05:20:29;;;;;;;5.70;5.20;;;4.10;99.90;;;;;;5034974;28;20432;-65
2022/04/04 05:22:55;;;;;;;8.47;4.33;;;4.10;99.90;;;;;;5035355;28;20238;-62
2022/04/04 05:25:21;;;;;;;5.33;4.93;;;4.00;99.90;;;;;;5035372;28;20970;-65
2022/04/04 05:27:46;;;;;;;8.10;5.07;;;4.10;1.00;;;;;;5035424;28;20191;-62
2022/04/04 05:30:12;;;;;;;8.30;7.03;;;4.10;1.00;;;;;;5034695;28;20167;-64
2022/04/04 05:32:38;;;;;;;5.13;4.63;;;4.10;1.00;;;;;;5035296;28;20195;-65
2022/04/04 05:35:06;;;;;;;5.83;5.43;;;4.00;1.00;;;;;;5035100;28;20405;-65
2022/04/04 05:37:32;;;;;;;6.27;5.67;;;4.00;1.00;;;;;;5035310;28;20175;-62
2022/04/04 05:39:58;;;;;;;6.50;5.90;;;4.00;1.00;;;;;;5034539;28;20427;-65
2022/04/04 05:42:24;;;;;;;5.47;4.97;;;3.90;1.00;;;;;;5033706;28;20504;-62
2022/04/04 05:44:49;;;;;;;8.73;7.10;;;3.90;1.00;;;;;;5034909;28;20179;-64
2022/04/04 05:47:19;;;;;;;6.83;6.07;;;3.90;1.00;;;;;;5033624;28;20167;-66
2022/04/04 05:49:45;;;;;;;9.00;7.03;;;3.90;1.00;;;;;;5034401;28;20162;-65
2022/04/04 05:52:11;;;;;;;8.30;6.83;;;3.90;1.00;;;;;;5034933;28;20414;-62
2022/04/04 05:54:53;;;;;;;12.33;8.80;;;3.90;1.00;;;;;;5034985;28;20521;-63
2022/04/04 05:57:31;;;;;;;13.97;7.23;;;4.00;1.00;;;;;;5034646;28;20632;-63
2022/04/04 05:59:57;;;;;;;11.20;8.47;;;3.90;1.00;;;;;;5034125;28;20429;-65
2022/04/04 06:02:26;;;;;;;8.97;7.93;;;3.90;1.00;;;;;;5034853;28;20427;-62
2022/04/04 06:04:52;;;;;;;8.83;8.00;;;3.90;1.00;;;;;;5034770;28;20879;-65
2022/04/04 06:07:18;;;;;;;13.60;8.93;;;3.80;1.00;;;;;;5034670;28;20403;-63
2022/04/04 06:09:45;;;;;;;12.23;8.67;;;3.80;1.00;;;;;;5033837;28;20476;-66
2022/04/04 06:12:11;;;;;;;10.13;7.73;;;3.80;1.00;;;;;;5034728;28;20444;-65
2022/04/04 06:14:38;;;;;;;12.33;9.23;;;3.80;1.00;;;;;;5034433;28;20485;-63
2022/04/04 06:17:05;;;;;;;12.33;9.33;;;3.80;1.00;;;;;;5034453;28;20402;-63
2022/04/04 06:19:35;;;;;;;11.93;8.77;;;3.80;1.00;;;;;;5033780;28;20806;-65
2022/04/04 06:22:04;;;;;;;29.33;10.53;;;3.80;1.00;;;;;;5034416;28;20433;-65
2022/04/04 06:24:31;;;;;;;10.07;8.87;;;3.80;1.00;;;;;;5034296;28;20432;-63
2022/04/04 06:26:58;;;;;;;9.40;6.97;;;3.80;1.00;;;;;;5033974;28;20508;-65
2022/04/04 06:29:23;;;;;;;9.47;8.47;;;3.80;1.00;;;;;;5033523;28;20410;-65
2022/04/04 06:31:51;;;;;;;12.40;10.40;;;3.80;1.00;;;;;;5032864;28;20438;-65
2022/04/04 06:34:17;;;;;;;9.93;8.27;;;3.70;1.00;;;;;;5034166;28;20168;-65
2022/04/04 06:36:43;;;;;;;13.37;8.73;;;3.80;1.00;;;;;;5034126;28;20501;-62
2022/04/04 06:39:09;;;;;;;9.13;7.90;;;3.70;1.00;;;;;;5033346;28;20959;-65
2022/04/04 06:41:36;;;;;;;9.40;7.77;;;3.80;1.00;;;;;;5033807;28;20191;-66
2022/04/04 06:44:02;;;;;;;14.57;10.80;;;3.70;1.00;;;;;;5033941;28;20172;-66
2022/04/04 06:46:28;;;;;;;6.03;5.50;;;3.80;1.00;;;;;;5033990;28;20458;-65
2022/04/04 06:48:54;;;;;;;8.73;8.03;;;3.70;1.00;;;;;;5033195;28;20460;-63
2022/04/04 06:51:19;;;;;;;8.60;7.10;;;3.70;1.00;;;;;;5033711;28;20183;-63
2022/04/04 06:53:45;;;;;;;10.10;7.57;;;3.70;1.00;;;;;;5033584;28;20178;-66
2022/04/04 06:56:12;;;;;;;10.40;8.77;;;3.70;1.00;;;;;;5033920;28;20167;-66
2022/04/04 06:58:38;;;;;;;11.53;9.43;;;3.70;1.00;;;;;;5033278;28;20766;-63
2022/04/04 07:01:04;;;;;;;9.07;7.40;;;3.80;1.00;;;;;;5033686;28;20409;-66
2022/04/04 07:03:30;;;;;;;9.40;7.40;;;3.80;1.00;;;;;;5033579;28;20895;-66
2022/04/04 07:05:55;;;;;;;9.67;8.67;;;3.80;1.00;;;;;;5033532;28;21009;-66
2022/04/04 07:08:21;;;;;;;9.60;8.10;;;3.80;1.00;;;;;;5033455;28;20533;-65
2022/04/04 07:10:48;;;;;;;11.97;7.10;;;3.80;1.00;;;;;;5032820;28;20430;-66
2022/04/04 07:13:16;;;;;;;10.17;8.30;;;3.90;1.00;;;;;;5033518;28;20187;-63
2022/04/04 07:15:43;;;;;;;14.23;6.47;;;3.90;6.50;;;;;;5033566;28;20402;-66
2022/04/04 07:18:09;;;;;;;11.00;9.00;;;3.90;4.00;;;;;;5033351;28;20402;-64
2022/04/04 07:20:35;;;;;;;17.30;7.30;;;3.90;9.40;;;;;;5032861;28;20406;-65
2022/04/04 07:23:01;;;;;;;19.00;10.70;;;4.00;9.80;;;;;;5033412;28;20933;-66
2022/04/04 07:25:28;;;;;;;12.67;8.33;;;4.00;11.50;;;;;;5033395;28;20208;-65
2022/04/04 07:27:54;;;;;;;12.23;9.90;;;3.90;8.40;;;;;;5033309;28;20187;-67
2022/04/04 07:30:20;;;;;;;12.23;9.83;;;3.90;13.10;;;;;;5032716;28;20495;-63
2022/04/04 07:32:48;;;;;;;9.13;6.97;;;3.90;16.30;;;;;;5033376;28;20571;-67
2022/04/04 07:35:13;;;;;;;9.87;8.60;;;3.90;17.80;;;;;;5033206;28;20406;-65
2022/04/04 07:37:41;;;;;;;11.97;8.73;;;3.90;18.70;;;;;;5034474;28;20733;-64
2022/04/04 07:40:10;;;;;;;13.37;8.57;;;3.90;27.70;;;;;;5036649;28;20656;-66
2022/04/04 07:42:37;;;;;;;7.10;6.53;;;3.90;27.70;;;;;;5037397;28;20428;-67
2022/04/04 07:45:04;;;;;;;7.77;6.87;;;3.90;27.80;;;;;;5037182;28;20460;-64
2022/04/04 07:47:30;;;;;;;11.27;7.80;;;3.90;27.80;;;;;;5037286;28;20922;-66
2022/04/04 07:49:55;;;;;;;13.60;9.23;;;3.90;27.70;;;;;;5036472;28;20398;-66
2022/04/04 07:52:22;;;;;;;10.50;8.43;;;3.80;27.60;;;;;;5036971;28;20199;-64
2022/04/04 07:54:47;;;;;;;11.53;9.73;;;3.90;29.70;;;;;;5037080;28;20625;-65
2022/04/04 07:57:14;;;;;;;7.60;6.23;;;3.90;32.80;;;;;;5037284;28;20398;-65
2022/04/04 07:59:40;;;;;;;9.23;8.23;;;3.90;38.50;;;;;;5036509;28;20456;-65
2022/04/04 08:02:06;;;;;;;11.23;8.67;;;3.90;44.10;;;;;;5036693;28;20438;-65
2022/04/04 08:04:31;;;;;;;13.40;9.40;;;3.90;51.20;;;;;;5036741;28;20171;-65
2022/04/04 08:06:57;;;;;;;8.73;7.90;;;3.90;49.20;;;;;;5037112;28;20457;-68
2022/04/04 08:09:23;;;;;;;10.10;8.10;;;4.00;55.10;;;;;;5036294;28;20183;-64
2022/04/04 08:11:50;;;;;;;6.87;6.23;;;4.00;52.50;;;;;;5036860;28;20199;-67
2022/04/04 08:14:16;;;;;;;9.50;8.13;;;4.00;50.30;;;;;;5036839;28;20170;-66
2022/04/04 08:16:42;;;;;;;16.23;7.83;;;4.00;54.60;;;;;;5036783;28;20406;-64
2022/04/04 08:19:07;;;;;;;11.10;8.97;;;3.90;49.00;;;;;;5036096;28;20406;-67
2022/04/04 08:21:34;;;;;;;12.23;9.60;;;3.90;54.90;;;;;;5036620;28;20191;-67
2022/04/04 08:23:59;;;;;;;12.57;9.80;;;4.00;58.10;;;;;;5036644;28;20195;-67
2022/04/04 08:26:25;;;;;;;10.17;7.93;;;4.00;56.20;;;;;;5036450;28;20962;-67
2022/04/04 08:28:50;;;;;;;9.20;8.40;;;4.00;60.00;;;;;;5035886;28;20171;-65
2022/04/04 08:31:16;;;;;;;7.37;6.67;;;4.00;61.50;;;;;;5036491;28;20172;-69
2022/04/04 08:33:42;;;;;;;7.33;6.50;;;3.90;64.00;;;;;;5036399;28;20174;-68
2022/04/04 08:36:08;;;;;;;8.13;7.30;;;3.90;65.60;;;;;;5036373;28;20401;-68
2022/04/04 08:38:37;;;;;;;12.57;7.67;;;3.90;67.40;;;;;;5035584;28;20702;-69
2022/04/04 08:41:05;;;;;;;8.13;4.97;;;3.90;76.60;;;;;;5036356;28;20160;-69
2022/04/04 08:43:36;;;;;;;8.40;7.03;;;3.90;76.60;;;;;;5036289;28;20404;-65
2022/04/04 08:46:04;;;;;;;9.00;8.10;;;3.90;79.60;;;;;;5036081;28;20446;-66
2022/04/04 08:48:31;;;;;;;9.13;7.40;;;3.90;91.40;;;;;;5035299;28;20468;-69
2022/04/04 08:50:57;;;;;;;8.33;7.57;;;3.90;92.00;;;;;;5036044;28;20386;-70
2022/04/04 08:53:23;;;;;;;7.47;6.77;;;3.80;91.80;;;;;;5035938;28;20418;-68
2022/04/04 08:55:49;;;;;;;7.60;6.90;;;3.90;96.10;;;;;;5035913;28;20414;-68
2022/04/04 08:58:15;;;;;;;12.33;6.83;;;3.90;99.90;;;;;;5035968;28;20179;-65
2022/04/04 09:00:42;;;;;;;8.10;7.30;;;3.90;99.90;;;;;;5035003;28;20398;-68
2022/04/04 09:03:09;;;;;;;10.03;8.87;;;3.90;99.90;;;;;;5035690;28;20768;-67
2022/04/04 09:05:53;;;;;;;6.47;5.87;;;3.80;99.90;;;;;;5035938;28;20445;-66
2022/04/04 09:08:20;;;;;;;8.70;7.80;;;3.90;99.90;;;;;;5036019;28;20394;-68
2022/04/04 09:10:46;;;;;;;7.07;5.97;;;3.80;99.90;;;;;;5035156;28;20505;-69
2022/04/04 09:13:19;;;;;;;12.93;6.10;;;3.80;99.90;;;;;;5035651;28;20436;-69
2022/04/04 09:15:55;;;;;;;8.37;7.57;;;3.80;99.90;;;;;;5035880;28;20725;-69
2022/04/04 09:18:42;;;;;;;8.37;7.10;;;3.70;99.90;;;;;;5035582;28;20938;-71
2022/04/04 09:21:20;;;;;;;8.23;7.03;;;3.70;99.90;;;;;;5035447;28;20411;-66
2022/04/04 09:23:45;;;;;;;9.20;6.27;;;3.70;99.90;;;;;;5035600;28;20418;-67
2022/04/04 09:26:48;;;;;;;11.90;8.17;;;3.70;99.90;;;;;;5035389;28;20472;-67
2022/04/04 09:29:17;;;;;;;7.27;6.67;;;3.70;99.90;;;;;;5052567;28;20270;-67
2022/04/04 09:32:05;;;;;;;5.03;4.67;;;3.60;99.90;;;;;;5038246;28;20931;-67
2022/04/04 09:35:13;;;;;;;5.23;4.83;;;3.70;99.90;;;;;;5035359;28;20395;-69
2022/04/04 09:37:45;;;;;;;7.20;6.47;;;3.70;99.90;;;;;;5022978;28;20572;-67
2022/04/04 09:40:16;;;;;;;5.23;4.73;;;3.70;99.90;;;;;;5034566;28;20741;-68
2022/04/04 09:42:53;;;;;;;7.53;6.90;;;3.70;99.90;;;;;;5035087;28;20407;-67
2022/04/04 09:45:24;;;;;;;6.77;6.27;;;3.70;99.90;;;;;;5034941;28;20536;-71
2022/04/04 09:48:07;;;;;;;7.23;5.37;;;3.70;99.90;;;;;;5035032;28;20405;-69
2022/04/04 09:50:46;;;;;;;8.23;7.50;;;3.70;99.90;;;;;;5034310;28;20403;-67
2022/04/04 09:53:14;;;;;;;8.10;7.30;;;3.70;99.90;;;;;;5034709;28;20433;-70
2022/04/04 09:55:46;;;;;;;6.57;5.97;;;3.70;99.90;;;;;;5034994;28;20463;-67
2022/04/04 09:58:16;;;;;;;8.93;8.13;;;3.70;99.90;;;;;;5034780;28;20426;-70
2022/04/04 10:00:44;;;;;;;5.40;4.90;;;3.70;99.90;;;;;;5033524;28;20402;-69
2022/04/04 10:03:14;;;;;;;5.20;4.70;;;3.80;99.90;;;;;;5034543;28;20453;-66
2022/04/04 10:05:44;;;;;;;9.30;6.97;;;3.70;99.90;;;;;;5034721;28;20445;-66
2022/04/04 10:08:17;;;;;;;6.03;5.63;;;3.70;99.90;;;;;;5034853;28;20413;-66
2022/04/04 10:10:44;;;;;;;5.80;5.33;;;3.70;99.90;;;;;;5034011;28;20446;-69
2022/04/04 10:13:13;;;;;;;5.33;4.93;;;3.70;99.90;;;;;;5034384;28;20422;-71
2022/04/04 10:15:39;;;;;;;8.03;7.33;;;3.80;99.90;;;;;;5034633;28;20441;-69
2022/04/04 10:18:06;;;;;;;6.50;5.97;;;3.80;99.90;;;;;;5034651;28;20403;-66
2022/04/04 10:20:32;;;;;;;6.63;6.03;;;3.90;99.90;;;;;;5033834;28;20424;-66
2022/04/04 10:22:59;;;;;;;11.07;8.33;;;3.90;99.90;;;;;;5034374;28;20421;-70
2022/04/04 10:25:27;;;;;;;8.07;7.37;;;3.90;99.90;;;;;;5034044;28;20450;-70
2022/04/04 10:27:54;;;;;;;8.50;7.00;;;4.00;99.90;;;;;;5034467;28;20399;-65
2022/04/04 10:30:32;;;;;;;6.30;5.73;;;3.90;99.90;;;;;;5033529;28;20440;-69
2022/04/04 10:32:57;;;;;;;6.97;6.27;;;3.90;99.90;;;;;;5034148;28;20429;-71
2022/04/04 10:35:27;;;;;;;5.23;4.73;;;3.90;99.90;;;;;;5034116;28;20481;-69
2022/04/04 10:38:03;;;;;;;7.00;6.23;;;4.00;99.90;;;;;;5034122;28;20771;-70
2022/04/04 10:40:30;;;;;;;7.60;7.00;;;4.00;99.90;;;;;;5033402;28;20413;-68
2022/04/04 10:43:11;;;;;;;7.20;6.50;;;4.00;99.90;;;;;;5034027;28;20426;-66
2022/04/04 10:45:49;;;;;;;10.87;6.77;;;4.00;99.90;;;;;;5033794;28;20492;-70
2022/04/04 10:48:18;;;;;;;10.80;8.40;;;4.00;99.90;;;;;;5033992;28;20429;-70
2022/04/04 10:50:45;;;;;;;9.00;7.70;;;4.00;99.90;;;;;;5033206;28;20464;-66
2022/04/04 10:53:10;;;;;;;7.47;6.67;;;4.00;99.90;;;;;;5033673;28;20449;-68
2022/04/04 10:55:36;;;;;;;8.13;7.33;;;4.10;99.90;;;;;;5033573;28;20398;-71
2022/04/04 10:58:15;;;;;;;7.40;6.73;;;4.00;99.90;;;;;;5033692;28;20198;-68
2022/04/04 11:00:56;;;;;;;4.87;4.57;;;4.10;99.90;;;;;;5033076;28;20159;-70
2022/04/04 11:03:30;;;;;;;16.30;5.10;;;4.00;99.90;;;;;;5033605;28;20921;-71
2022/04/04 11:09:15;;;;;;;7.50;6.43;;;4.10;99.90;;;;;;5032889;28;21861;-70
2022/04/04 11:12:12;;;;;;;6.23;5.73;;;4.10;99.90;;;;;;5032831;28;20434;-68
2022/04/04 11:14:39;;;;;;;7.80;7.00;;;4.10;99.90;;;;;;5033685;28;20405;-72
2022/04/04 11:17:17;;;;;;;4.83;4.47;;;4.20;99.90;;;;;;5033572;28;20417;-70
2022/04/04 11:20:10;;;;;;;10.07;5.23;;;4.20;99.90;;;;;;5032734;28;20413;-69
2022/04/04 11:22:41;;;;;;;6.90;4.90;;;4.20;99.90;;;;;;5033327;28;20438;-66
2022/04/04 11:25:12;;;;;;;5.47;5.07;;;4.30;99.90;;;;;;5033414;28;20437;-70
2022/04/04 11:27:40;;;;;;;4.83;4.50;;;4.20;99.90;;;;;;5033454;28;20399;-70
2022/04/04 11:30:11;;;;;;;4.60;4.20;;;4.20;99.90;;;;;;5032634;28;20425;-69
2022/04/04 11:32:43;;;;;;;5.07;4.63;;;4.30;99.90;;;;;;5033380;28;20415;-71
2022/04/04 11:35:09;;;;;;;7.07;5.70;;;4.30;99.90;;;;;;5033388;28;20436;-70
2022/04/04 11:37:40;;;;;;;4.63;3.90;;;4.40;99.90;;;;;;5033212;28;20760;-71
2022/04/04 11:40:08;;;;;;;7.70;5.33;;;4.40;99.90;;;;;;5032620;28;20395;-70
2022/04/04 11:42:41;;;;;;;7.10;5.93;;;4.50;99.90;;;;;;5033344;28;20506;-66
2022/04/04 11:45:08;;;;;;;4.90;4.60;;;4.50;99.90;;;;;;5033099;28;20422;-72
2022/04/04 11:47:39;;;;;;;5.37;4.97;;;4.60;99.90;;;;;;5033026;28;20398;-69
2022/04/04 11:50:06;;;;;;;4.17;3.77;;;4.70;99.90;;;;;;5031116;28;20477;-68
2022/04/04 11:52:47;;;;;;;4.73;4.43;;;4.70;99.90;;;;;;5033045;28;20433;-71
2022/04/04 11:55:16;;;;;;;4.80;4.43;;;4.70;1.00;;;;;;5031884;28;20411;-68
2022/04/04 11:57:46;;;;;;;4.60;4.30;;;4.80;1.00;;;;;;5033065;28;20395;-68
2022/04/04 12:00:22;;;;;;;6.80;4.37;;;4.90;1.00;;;;;;5032320;28;20391;-73
2022/04/04 12:02:48;;;;;;;3.13;2.93;;;5.00;1.00;;;;;;5033043;28;20779;-68
2022/04/04 12:05:14;;;;;;;5.17;4.87;;;5.00;1.00;;;;;;5033090;28;20445;-69
2022/04/04 12:07:44;;;;;;;5.00;3.90;;;5.10;1.00;;;;;;5033153;28;20410;-75
2022/04/04 12:10:13;;;;;;;6.50;5.80;;;5.20;1.00;;;;;;5032181;28;20419;-68
2022/04/04 12:12:39;;;;;;;4.63;4.33;;;5.20;1.00;;;;;;5032863;28;20423;-70
2022/04/04 12:15:05;;;;;;;4.63;4.30;;;5.30;1.00;;;;;;5033269;28;20542;-67
2022/04/04 12:17:31;;;;;;;4.47;4.10;;;5.40;1.00;;;;;;5033112;28;20212;-68
2022/04/04 12:19:57;;;;;;;5.53;4.30;;;5.40;1.00;;;;;;5031111;28;20405;-72
2022/04/04 12:25:16;;;;;;;4.67;4.30;;;5.60;1.00;;;;;;5036686;28;20170;-69
2022/04/04 12:27:56;;;;;;;3.77;3.57;;;5.60;1.00;;;;;;5035635;28;20434;-73
2022/04/04 12:30:36;;;;;;;4.17;3.23;;;5.70;1.00;;;;;;5035849;28;20405;-74
2022/04/04 12:33:13;;;;;;;3.20;3.00;;;5.70;1.00;;;;;;5036438;28;20426;-74
2022/04/04 12:35:41;;;;;;;4.53;3.77;;;5.70;1.00;;;;;;5035197;28;20417;-68
2022/04/04 12:38:08;;;;;;;4.00;3.70;;;5.80;1.00;;;;;;5036433;28;20405;-70
2022/04/04 12:40:34;;;;;;;3.53;3.33;;;5.80;1.00;;;;;;5035648;28;20418;-73
2022/04/04 12:43:08;;;;;;;3.13;2.40;;;5.90;1.00;;;;;;5036295;28;20451;-69
2022/04/04 12:45:34;;;;;;;3.77;3.00;;;5.90;1.00;;;;;;5036123;28;20198;-75
2022/04/04 12:48:09;;;;;;;2.80;2.60;;;5.90;1.00;;;;;;5036276;28;20403;-75
2022/04/04 12:50:43;;;;;;;2.90;2.80;;;5.90;1.00;;;;;;5035443;28;20940;-71
2022/04/04 12:53:10;;;;;;;2.87;2.77;;;6.00;1.00;;;;;;5036052;28;20425;-70
2022/04/04 12:55:38;;;;;;;2.80;2.60;;;6.00;1.00;;;;;;5036096;28;20422;-71
2022/04/04 12:58:16;;;;;;;2.87;2.43;;;6.00;1.00;;;;;;5036005;28;20413;-76
2022/04/04 13:00:42;;;;;;;2.37;2.20;;;6.00;1.00;;;;;;5035398;28;20460;-75
2022/04/04 13:03:22;;;;;;;2.10;2.00;;;6.10;1.00;;;;;;5034771;28;20448;-68
2022/04/04 13:05:56;;;;;;;2.27;2.07;;;6.10;1.00;;;;;;5034492;28;20587;-74
2022/04/04 13:08:24;;;;;;;2.00;1.90;;;6.10;1.00;;;;;;5035601;28;20406;-72
2022/04/04 13:11:13;;;;;;;1.67;1.57;;;6.20;1.00;;;;;;5034981;28;20468;-74
2022/04/04 13:14:06;;;;;;;4.30;2.30;;;6.20;1.00;;;;;;5035763;28;20414;-68
2022/04/04 13:16:40;;;;;;;2.23;1.77;;;6.20;1.00;;;;;;5035804;28;20413;-70